createdAt,value
2023-02-23T00:02:46.408Z,88.89
2023-02-23T00:07:49.421Z,88.65
2023-02-23T00:12:52.335Z,88.34
2023-02-23T00:17:56.661Z,88.23
2023-02-23T00:22:59.977Z,88.02
2023-02-23T00:28:02.878Z,87.61
2023-02-23T00:33:05.789Z,87.47
2023-02-23T00:38:08.896Z,87.22
2023-02-23T00:43:11.710Z,87.05
2023-02-23T00:48:14.807Z,86.55
2023-02-23T00:53:17.714Z,86.22
2023-02-23T00:58:20.991Z,86.12
2023-02-23T01:03:24.132Z,85.90
2023-02-23T01:08:28.630Z,85.43
2023-02-23T01:13:31.679Z,85.20
2023-02-23T01:18:35.910Z,85.09
2023-02-23T01:23:38.754Z,85.23
2023-02-23T01:28:41.718Z,85.17
2023-02-23T01:33:44.831Z,85.48
2023-02-23T01:38:49.388Z,85.40
2023-02-23T01:44:15.352Z,85.34
2023-02-23T01:49:23.583Z,85.31
2023-02-23T01:54:31.360Z,85.28
2023-02-23T01:59:43.239Z,85.27
2023-02-23T02:04:46.897Z,85.35
2023-02-23T02:10:11.251Z,85.73
2023-02-23T02:15:17.905Z,86.20
2023-02-23T02:20:43.056Z,86.24
2023-02-23T02:26:01.412Z,86.18
2023-02-23T02:31:24.193Z,86.16
2023-02-23T02:37:05.166Z,86.15
2023-02-23T02:42:50.352Z,86.10
2023-02-23T02:47:56.328Z,85.96
2023-02-23T02:53:05.996Z,86.13
2023-02-23T02:58:11.564Z,86.50
2023-02-23T03:03:47.131Z,86.74
2023-02-23T03:09:54.140Z,87.08
2023-02-23T03:16:04.335Z,87.50
2023-02-23T03:21:38.565Z,87.51
2023-02-23T03:27:11.266Z,87.51
2023-02-23T03:32:55.556Z,87.45
2023-02-23T03:38:28.960Z,87.53
2023-02-23T03:44:02.275Z,87.52
2023-02-23T03:49:28.632Z,87.27
2023-02-23T03:54:55.923Z,86.93
2023-02-23T04:00:22.674Z,86.90
2023-02-23T04:05:48.513Z,86.84
2023-02-23T04:11:20.172Z,86.59
2023-02-23T04:16:23.427Z,86.66
2023-02-23T04:21:26.405Z,86.64
2023-02-23T04:26:29.324Z,86.44
2023-02-23T04:31:32.305Z,86.28
2023-02-23T04:36:36.557Z,86.35
2023-02-23T04:41:39.458Z,86.53
2023-02-23T04:46:42.358Z,86.14
2023-02-23T04:51:45.366Z,82.93
2023-02-23T04:56:48.275Z,80.08
2023-02-23T05:01:51.175Z,78.95
2023-02-23T05:06:54.285Z,78.33
2023-02-23T05:11:57.396Z,78.33
2023-02-23T05:17:00.400Z,77.88
2023-02-23T05:22:03.681Z,77.93
2023-02-23T05:27:07.918Z,78.20
2023-02-23T05:32:10.965Z,78.33
2023-02-23T05:37:14.000Z,78.33
2023-02-23T05:42:17.496Z,78.31
2023-02-23T05:47:20.486Z,78.68
2023-02-23T05:52:24.920Z,79.19
2023-02-23T05:57:28.994Z,79.67
2023-02-23T06:02:32.471Z,79.90
2023-02-23T06:07:35.688Z,79.66
2023-02-23T06:12:38.598Z,79.27
2023-02-23T06:17:41.593Z,78.72
2023-02-23T06:22:45.009Z,77.83
2023-02-23T06:27:47.914Z,76.64
2023-02-23T06:32:50.819Z,75.30
2023-02-23T06:37:54.075Z,73.89
2023-02-23T06:42:57.241Z,72.95
2023-02-23T06:48:01.015Z,73.25
2023-02-23T06:53:04.080Z,72.48
2023-02-23T06:58:08.209Z,72.22
2023-02-23T07:03:11.518Z,71.02
2023-02-23T07:08:14.459Z,69.62
2023-02-23T07:13:17.433Z,68.09
2023-02-23T07:18:20.369Z,65.73
2023-02-23T07:23:23.453Z,64.32
2023-02-23T07:28:28.604Z,62.97
2023-02-23T07:33:32.862Z,61.83
2023-02-23T07:38:36.782Z,61.02
2023-02-23T07:43:40.083Z,60.13
2023-02-23T07:48:46.737Z,59.96
2023-02-23T07:53:49.880Z,59.55
2023-02-23T07:58:52.785Z,57.76
2023-02-23T08:03:55.744Z,55.18
2023-02-23T08:09:01.197Z,53.79
2023-02-23T08:14:04.169Z,51.44
2023-02-23T08:19:07.070Z,50.10
2023-02-23T08:24:11.095Z,49.61
2023-02-23T08:29:14.000Z,50.46
2023-02-23T08:34:17.825Z,50.78
2023-02-23T08:39:21.344Z,52.29
2023-02-23T08:44:24.351Z,53.99
2023-02-23T08:49:27.264Z,55.68
2023-02-23T08:54:30.874Z,56.98
2023-02-23T08:59:33.983Z,55.73
2023-02-23T09:04:37.708Z,54.03
2023-02-23T09:09:40.920Z,53.56
2023-02-23T09:14:43.820Z,53.63
2023-02-23T09:19:46.721Z,52.33
2023-02-23T09:24:49.643Z,50.33
2023-02-23T09:29:52.535Z,50.78
2023-02-23T09:34:55.846Z,52.52
2023-02-23T09:39:58.955Z,53.67
2023-02-23T09:45:17.219Z,54.81
2023-02-23T09:50:27.090Z,55.88
2023-02-23T09:55:31.020Z,56.33
2023-02-23T10:00:40.988Z,55.95
2023-02-23T10:05:48.521Z,53.41
2023-02-23T10:10:59.584Z,51.14
2023-02-23T10:16:37.731Z,50.32
2023-02-23T10:21:47.911Z,48.86
2023-02-23T10:26:55.742Z,48.11
2023-02-23T10:32:04.770Z,47.15
2023-02-23T10:37:11.458Z,45.91
2023-02-23T10:42:20.325Z,45.81
2023-02-23T10:47:33.369Z,47.55
2023-02-23T10:52:44.625Z,49.33
2023-02-23T10:57:47.556Z,49.64
2023-02-23T11:02:50.416Z,50.21
2023-02-23T11:08:19.895Z,51.33
2023-02-23T11:13:26.678Z,52.28
2023-02-23T11:18:30.612Z,52.77
2023-02-23T11:23:37.031Z,53.76
2023-02-23T11:28:43.423Z,54.20
2023-02-23T11:33:48.513Z,53.41
2023-02-23T11:39:24.856Z,52.12
2023-02-23T11:44:28.137Z,49.94
2023-02-23T11:49:36.162Z,49.18
2023-02-23T11:54:52.172Z,47.07
2023-02-23T11:59:58.357Z,45.35
2023-02-23T12:05:10.016Z,44.31
2023-02-23T12:10:33.938Z,43.77
2023-02-23T12:15:55.602Z,42.84
2023-02-23T12:21:08.031Z,40.63
2023-02-23T12:26:19.081Z,38.47
2023-02-23T12:31:28.701Z,38.14
2023-02-23T12:36:51.157Z,38.08
2023-02-23T12:42:32.347Z,37.66
2023-02-23T12:47:56.347Z,36.82
2023-02-23T12:53:12.554Z,36.87
2023-02-23T12:58:23.621Z,37.67
2023-02-23T13:03:41.514Z,39.63
2023-02-23T13:09:02.759Z,42.11
2023-02-23T13:14:11.800Z,44.41
2023-02-23T13:19:47.164Z,42.99
2023-02-23T13:24:54.267Z,41.60
2023-02-23T13:29:59.350Z,42.22
2023-02-23T13:35:13.491Z,41.99
2023-02-23T13:40:35.884Z,42.11
2023-02-23T13:46:01.876Z,42.68
2023-02-23T13:51:18.486Z,45.07
2023-02-23T13:56:28.284Z,47.76
2023-02-23T14:01:44.011Z,50.16
2023-02-23T14:07:00.410Z,52.05
2023-02-23T14:12:19.595Z,53.06
2023-02-23T14:17:22.314Z,53.20
2023-02-23T14:22:25.308Z,53.09
2023-02-23T14:27:43.418Z,52.43
2023-02-23T14:32:49.357Z,51.27
2023-02-23T14:37:59.950Z,49.98
2023-02-23T14:43:04.271Z,49.84
2023-02-23T14:48:17.257Z,50.55
2023-02-23T14:53:24.405Z,51.43
2023-02-23T14:58:33.596Z,52.59
2023-02-23T15:03:37.380Z,53.88
2023-02-23T15:08:45.014Z,55.54
2023-02-23T15:13:50.529Z,57.54
2023-02-23T15:18:53.782Z,59.83
2023-02-23T15:24:16.753Z,61.84
2023-02-23T15:29:22.929Z,64.31
2023-02-23T15:34:30.208Z,66.30
2023-02-23T15:39:57.079Z,67.84
2023-02-23T15:45:03.472Z,69.43
2023-02-23T15:50:36.539Z,71.36
2023-02-23T15:55:43.910Z,73.15
2023-02-23T16:00:56.168Z,74.23
2023-02-23T16:06:04.054Z,75.04
2023-02-23T16:11:15.256Z,75.96
2023-02-23T16:16:25.472Z,76.83
2023-02-23T16:21:35.078Z,77.43
2023-02-23T16:26:41.179Z,79.13
2023-02-23T16:31:50.553Z,80.16
2023-02-23T16:36:59.581Z,80.52
2023-02-23T16:42:02.489Z,82.48
2023-02-23T16:47:06.821Z,82.40
2023-02-23T16:52:17.688Z,82.03
2023-02-23T16:57:22.687Z,82.52
2023-02-23T17:02:25.725Z,82.66
2023-02-23T17:07:28.782Z,82.83
2023-02-23T17:12:32.858Z,82.47
2023-02-23T17:17:36.547Z,82.43
2023-02-23T17:22:39.437Z,82.77
2023-02-23T17:27:42.338Z,82.45
2023-02-23T17:32:45.746Z,82.42
2023-02-23T17:37:49.579Z,82.42
2023-02-23T17:42:53.385Z,82.16
2023-02-23T17:47:57.847Z,82.04
2023-02-23T17:53:00.955Z,81.99
2023-02-23T17:58:03.859Z,82.29
2023-02-23T18:03:07.086Z,82.15
2023-02-23T18:08:09.970Z,82.18
2023-02-23T18:13:12.873Z,81.92
2023-02-23T18:18:15.883Z,82.05
2023-02-23T18:23:20.206Z,81.72
2023-02-23T18:28:23.124Z,81.49
2023-02-23T18:33:26.031Z,81.24
2023-02-23T18:38:28.933Z,80.78
2023-02-23T18:43:31.837Z,80.29
2023-02-23T18:48:35.765Z,80.29
2023-02-23T18:53:38.977Z,80.03
2023-02-23T18:58:44.703Z,79.67
2023-02-23T19:03:49.708Z,79.29
2023-02-23T19:08:57.415Z,79.09
2023-02-23T19:14:03.980Z,78.81
2023-02-23T19:19:08.548Z,78.53
2023-02-23T19:24:11.447Z,78.43
2023-02-23T19:29:14.252Z,78.16
2023-02-23T19:34:17.160Z,78.31
2023-02-23T19:39:20.199Z,78.61
2023-02-23T19:44:23.069Z,78.96
2023-02-23T19:49:26.178Z,79.21
2023-02-23T19:54:34.131Z,79.51
2023-02-23T19:59:37.937Z,79.72
2023-02-23T20:04:40.935Z,79.93
2023-02-23T20:09:44.554Z,79.96
2023-02-23T20:14:49.723Z,79.98
2023-02-23T20:19:52.998Z,80.27
2023-02-23T20:24:57.153Z,80.17
2023-02-23T20:30:00.476Z,80.27
2023-02-23T20:35:03.578Z,80.18
2023-02-23T20:40:18.677Z,80.45
2023-02-23T20:45:24.741Z,80.57
2023-02-23T20:50:34.056Z,81.05
2023-02-23T20:55:37.419Z,81.49
2023-02-23T21:00:40.627Z,82.11
2023-02-23T21:05:43.539Z,82.85
2023-02-23T21:10:48.915Z,83.27
2023-02-23T21:16:01.300Z,83.76
2023-02-23T21:21:10.030Z,84.27
2023-02-23T21:26:16.265Z,84.83
2023-02-23T21:31:19.631Z,85.08
2023-02-23T21:36:23.306Z,85.88
2023-02-23T21:41:27.721Z,86.25
2023-02-23T21:46:32.398Z,86.47
2023-02-23T21:51:36.806Z,86.72
2023-02-23T21:56:39.818Z,87.04
2023-02-23T22:01:43.704Z,87.61
2023-02-23T22:06:46.751Z,87.81
2023-02-23T22:11:50.163Z,87.77
2023-02-23T22:16:53.067Z,88.21
2023-02-23T22:21:55.971Z,88.70
2023-02-23T22:27:01.129Z,89.16
2023-02-23T22:32:04.225Z,89.40
2023-02-23T22:37:07.653Z,90.32
2023-02-23T22:42:12.922Z,91.39
2023-02-23T22:47:15.919Z,93.19
2023-02-23T22:52:18.841Z,94.96
2023-02-23T22:57:21.933Z,96.80
2023-02-23T23:02:24.936Z,98.40
2023-02-23T23:07:29.071Z,99.78
2023-02-23T23:12:34.427Z,100.00
2023-02-23T23:17:38.148Z,100.00
2023-02-23T23:22:41.256Z,100.00
2023-02-23T23:27:47.692Z,100.00
2023-02-23T23:32:50.627Z,100.00
2023-02-23T23:37:53.773Z,100.00
2023-02-23T23:42:56.665Z,100.00
2023-02-23T23:47:59.572Z,100.00
2023-02-23T23:53:04.696Z,100.00
2023-02-23T23:58:07.524Z,100.00
